createdAt,value
2019-03-30T00:00:55.264Z,4.10
2019-03-30T00:03:23.468Z,4.17
2019-03-30T00:05:52.242Z,3.70
2019-03-30T00:08:21.088Z,3.93
2019-03-30T00:10:49.284Z,3.33
2019-03-30T00:13:17.741Z,3.90
2019-03-30T00:15:45.925Z,3.77
2019-03-30T00:18:14.142Z,3.37
2019-03-30T00:20:42.847Z,4.10
2019-03-30T00:23:11.158Z,4.00
2019-03-30T00:25:39.394Z,3.90
2019-03-30T00:28:07.881Z,3.70
2019-03-30T00:30:36.437Z,3.90
2019-03-30T00:33:04.881Z,4.20
2019-03-30T00:35:33.050Z,3.33
2019-03-30T00:38:01.316Z,3.93
2019-03-30T00:40:29.602Z,3.80
2019-03-30T00:42:57.542Z,3.93
2019-03-30T00:45:25.474Z,3.97
2019-03-30T00:47:53.699Z,4.20
2019-03-30T00:50:21.876Z,4.27
2019-03-30T00:52:50.055Z,4.20
2019-03-30T00:55:18.237Z,4.33
2019-03-30T00:57:46.422Z,4.47
2019-03-30T01:00:16.087Z,3.83
2019-03-30T01:02:44.368Z,4.30
2019-03-30T01:05:12.881Z,4.10
2019-03-30T01:07:41.325Z,4.30
2019-03-30T01:10:09.863Z,3.80
2019-03-30T01:12:37.788Z,4.10
2019-03-30T01:15:06.670Z,4.50
2019-03-30T01:17:34.874Z,4.33
2019-03-30T01:20:03.807Z,4.13
2019-03-30T01:22:31.903Z,4.70
2019-03-30T01:24:59.812Z,4.30
2019-03-30T01:27:28.271Z,4.10
2019-03-30T01:29:56.462Z,4.50
2019-03-30T01:32:24.657Z,4.47
2019-03-30T01:34:53.279Z,4.20
2019-03-30T01:37:21.500Z,4.53
2019-03-30T01:39:49.420Z,5.20
2019-03-30T01:42:17.416Z,4.83
2019-03-30T01:44:45.335Z,4.67
2019-03-30T01:47:13.548Z,4.30
2019-03-30T01:49:42.010Z,5.00
2019-03-30T01:52:10.187Z,4.90
2019-03-30T01:54:38.698Z,4.50
2019-03-30T01:57:07.127Z,5.00
2019-03-30T01:59:35.399Z,4.43
2019-03-30T02:02:03.336Z,4.50
2019-03-30T02:04:31.270Z,4.70
2019-03-30T02:06:59.703Z,4.60
2019-03-30T02:09:28.488Z,4.57
2019-03-30T02:11:57.042Z,4.60
2019-03-30T02:14:25.511Z,4.50
2019-03-30T02:16:54.199Z,4.53
2019-03-30T02:19:22.699Z,4.37
2019-03-30T02:21:51.172Z,4.20
2019-03-30T02:24:19.642Z,4.20
2019-03-30T02:26:47.554Z,4.53
2019-03-30T02:29:15.978Z,4.57
2019-03-30T02:31:44.721Z,4.47
2019-03-30T02:34:12.918Z,4.30
2019-03-30T02:36:41.108Z,4.10
2019-03-30T02:39:09.530Z,3.97
2019-03-30T02:41:37.748Z,4.60
2019-03-30T02:44:05.699Z,4.00
2019-03-30T02:46:33.901Z,4.70
2019-03-30T02:49:02.074Z,4.60
2019-03-30T02:51:30.337Z,4.20
2019-03-30T02:53:58.263Z,4.47
2019-03-30T02:56:26.526Z,3.80
2019-03-30T02:58:54.678Z,4.70
2019-03-30T03:01:22.872Z,4.40
2019-03-30T03:03:51.658Z,4.00
2019-03-30T03:06:19.885Z,4.53
2019-03-30T03:08:48.326Z,4.57
2019-03-30T03:11:16.794Z,4.77
2019-03-30T03:13:44.725Z,5.00
2019-03-30T03:16:13.407Z,4.80
2019-03-30T03:18:41.623Z,5.17
2019-03-30T03:21:09.546Z,5.13
2019-03-30T03:23:38.011Z,5.30
2019-03-30T03:26:06.213Z,4.97
2019-03-30T03:28:34.158Z,4.87
2019-03-30T03:31:02.371Z,4.70
2019-03-30T03:33:30.642Z,4.60
2019-03-30T03:35:58.822Z,4.80
2019-03-30T03:38:27.539Z,4.87
2019-03-30T03:40:56.542Z,4.70
2019-03-30T03:43:25.189Z,4.80
2019-03-30T03:45:53.664Z,4.10
2019-03-30T03:48:22.127Z,5.53
2019-03-30T03:50:53.631Z,4.97
2019-03-30T03:53:21.828Z,4.73
2019-03-30T03:55:50.684Z,4.13
2019-03-30T03:58:19.268Z,4.80
2019-03-30T04:00:47.582Z,5.30
2019-03-30T04:03:18.615Z,4.90
2019-03-30T04:05:46.922Z,4.93
2019-03-30T04:08:14.933Z,5.30
2019-03-30T04:10:44.438Z,4.97
2019-03-30T04:13:14.226Z,5.43
2019-03-30T04:15:42.595Z,5.80
2019-03-30T04:18:10.538Z,5.10
2019-03-30T04:20:38.740Z,5.73
2019-03-30T04:23:06.665Z,5.20
2019-03-30T04:25:34.854Z,5.27
2019-03-30T04:28:03.080Z,5.70
2019-03-30T04:30:31.068Z,6.30
2019-03-30T04:32:59.271Z,6.00
2019-03-30T04:35:27.459Z,5.80
2019-03-30T04:37:56.261Z,6.33
2019-03-30T04:40:24.717Z,6.30
2019-03-30T04:42:53.133Z,6.37
2019-03-30T04:45:21.621Z,6.73
2019-03-30T04:47:50.203Z,5.60
2019-03-30T04:50:18.792Z,6.40
2019-03-30T04:52:47.299Z,6.03
2019-03-30T04:55:15.217Z,6.27
2019-03-30T04:57:43.389Z,6.70
2019-03-30T05:00:11.930Z,6.40
2019-03-30T05:02:40.126Z,5.90
2019-03-30T05:05:08.061Z,6.30
2019-03-30T05:07:36.247Z,6.40
2019-03-30T05:10:04.837Z,6.00
2019-03-30T05:12:33.017Z,5.63
2019-03-30T05:15:00.964Z,6.13
2019-03-30T05:17:45.907Z,6.33
2019-03-30T05:19:59.543Z,5.87
2019-03-30T05:22:27.771Z,6.00
2019-03-30T05:24:55.975Z,5.90
2019-03-30T05:27:24.182Z,5.90
2019-03-30T05:29:52.117Z,5.67
2019-03-30T05:32:20.064Z,5.47
2019-03-30T05:34:47.985Z,5.37
2019-03-30T05:37:16.703Z,6.70
2019-03-30T05:39:44.767Z,6.20
2019-03-30T05:42:13.473Z,7.07
2019-03-30T05:44:41.417Z,7.03
2019-03-30T05:47:09.450Z,6.90
2019-03-30T05:49:37.382Z,7.10
2019-03-30T05:52:06.221Z,6.60
2019-03-30T05:54:34.168Z,7.50
2019-03-30T05:57:02.095Z,6.77
2019-03-30T05:59:30.327Z,6.70
2019-03-30T06:01:58.617Z,6.47
2019-03-30T06:04:27.191Z,6.67
2019-03-30T06:06:55.405Z,6.10
2019-03-30T06:09:23.649Z,6.67
2019-03-30T06:11:51.569Z,6.10
2019-03-30T06:14:20.030Z,6.97
2019-03-30T06:16:48.475Z,7.40
2019-03-30T06:19:16.953Z,6.30
2019-03-30T06:21:44.888Z,7.30
2019-03-30T06:24:13.664Z,6.90
2019-03-30T06:26:41.581Z,6.33
2019-03-30T06:29:09.774Z,7.10
2019-03-30T06:31:38.232Z,6.60
2019-03-30T06:34:06.165Z,7.10
2019-03-30T06:36:34.351Z,7.23
2019-03-30T06:39:02.551Z,7.47
2019-03-30T06:41:31.034Z,7.10
2019-03-30T06:43:59.798Z,6.90
2019-03-30T06:46:27.993Z,6.93
2019-03-30T06:48:56.105Z,7.50
2019-03-30T06:51:24.291Z,7.30
2019-03-30T06:53:52.470Z,7.27
2019-03-30T06:56:20.641Z,7.60
2019-03-30T06:58:49.144Z,7.30
2019-03-30T07:01:17.357Z,7.83
2019-03-30T07:03:45.283Z,7.67
2019-03-30T07:06:13.512Z,7.73
2019-03-30T07:08:43.049Z,7.77
2019-03-30T07:11:20.939Z,7.73
2019-03-30T07:13:41.644Z,8.43
2019-03-30T07:16:09.822Z,7.80
2019-03-30T07:18:38.848Z,8.37
2019-03-30T07:21:07.318Z,8.40
2019-03-30T07:23:35.233Z,7.93
2019-03-30T07:26:03.567Z,8.10
2019-03-30T07:28:31.997Z,8.10
2019-03-30T07:30:59.915Z,7.87
2019-03-30T07:33:28.642Z,7.93
2019-03-30T07:35:56.857Z,8.23
2019-03-30T07:38:24.789Z,8.37
2019-03-30T07:40:52.723Z,8.57
2019-03-30T07:43:20.691Z,8.73
2019-03-30T07:45:49.258Z,7.50
2019-03-30T07:48:17.743Z,8.40
2019-03-30T07:50:45.957Z,7.90
2019-03-30T07:53:25.606Z,7.90
2019-03-30T07:55:44.525Z,7.43
2019-03-30T07:58:12.974Z,7.87
2019-03-30T08:00:41.232Z,8.03
2019-03-30T08:03:09.760Z,8.30
2019-03-30T08:05:37.668Z,8.30
2019-03-30T08:08:05.617Z,8.37
2019-03-30T08:10:33.805Z,7.90
2019-03-30T08:13:02.270Z,6.97
2019-03-30T08:15:30.207Z,6.73
2019-03-30T08:17:58.712Z,7.43
2019-03-30T08:20:26.895Z,7.80
2019-03-30T08:22:55.110Z,7.60
2019-03-30T08:25:23.366Z,7.27
2019-03-30T08:27:51.522Z,7.40
2019-03-30T08:30:19.450Z,6.90
2019-03-30T08:32:47.621Z,7.17
2019-03-30T08:35:15.552Z,6.57
2019-03-30T08:37:43.746Z,6.97
2019-03-30T08:40:11.940Z,6.97
2019-03-30T08:42:40.353Z,6.60
2019-03-30T08:45:08.664Z,6.90
2019-03-30T08:47:37.464Z,6.80
2019-03-30T08:50:06.186Z,6.60
2019-03-30T08:52:35.175Z,6.10
2019-03-30T08:55:03.445Z,6.43
2019-03-30T08:57:31.634Z,6.93
2019-03-30T09:00:00.097Z,7.00
2019-03-30T09:02:29.473Z,5.97
2019-03-30T09:04:57.993Z,6.43
2019-03-30T09:07:25.926Z,6.33
2019-03-30T09:09:54.338Z,6.27
2019-03-30T09:12:22.550Z,6.60
2019-03-30T09:14:50.714Z,6.27
2019-03-30T09:17:18.752Z,6.83
2019-03-30T09:19:47.233Z,6.80
2019-03-30T09:22:15.526Z,6.40
2019-03-30T09:24:43.525Z,6.73
2019-03-30T09:27:11.546Z,6.60
2019-03-30T09:29:39.827Z,5.63
2019-03-30T09:32:14.386Z,6.20
2019-03-30T09:34:37.766Z,5.80
2019-03-30T09:37:05.672Z,6.00
2019-03-30T09:39:34.184Z,6.37
2019-03-30T09:42:02.933Z,6.10
2019-03-30T09:44:31.137Z,6.20
2019-03-30T09:46:59.578Z,6.27
2019-03-30T09:49:28.309Z,6.27
2019-03-30T09:51:56.511Z,6.23
2019-03-30T09:54:24.957Z,6.03
2019-03-30T09:56:53.233Z,6.67
2019-03-30T09:59:21.418Z,6.90
2019-03-30T10:01:50.203Z,6.23
2019-03-30T10:04:18.307Z,6.27
2019-03-30T10:06:47.006Z,6.93
2019-03-30T10:09:15.213Z,7.10
2019-03-30T10:11:43.749Z,7.17
2019-03-30T10:14:11.682Z,6.93
2019-03-30T10:16:40.548Z,7.03
2019-03-30T10:19:08.755Z,6.80
2019-03-30T10:21:37.264Z,7.80
2019-03-30T10:24:05.215Z,6.77
2019-03-30T10:26:33.799Z,6.33
2019-03-30T10:29:02.317Z,5.50
2019-03-30T10:31:30.956Z,6.70
2019-03-30T10:33:59.149Z,7.23
2019-03-30T10:36:27.056Z,6.60
2019-03-30T10:38:54.990Z,6.80
2019-03-30T10:41:23.172Z,6.27
2019-03-30T10:43:51.635Z,5.47
2019-03-30T10:46:20.102Z,5.97
2019-03-30T10:48:48.281Z,6.30
2019-03-30T10:51:16.526Z,5.90
2019-03-30T10:53:45.018Z,6.10
2019-03-30T10:56:13.374Z,5.80
2019-03-30T10:58:41.550Z,5.97
2019-03-30T11:01:10.023Z,5.57
2019-03-30T11:03:38.420Z,5.33
2019-03-30T11:06:06.954Z,5.97
2019-03-30T11:08:35.133Z,5.80
2019-03-30T11:11:03.606Z,5.70
2019-03-30T11:13:32.306Z,5.50
2019-03-30T11:16:00.742Z,5.80
2019-03-30T11:18:29.180Z,6.60
2019-03-30T11:20:57.126Z,6.17
2019-03-30T11:23:25.310Z,5.77
2019-03-30T11:25:53.820Z,6.00
2019-03-30T11:28:21.758Z,5.60
2019-03-30T11:30:50.189Z,5.47
2019-03-30T11:33:18.635Z,5.47
2019-03-30T11:35:46.541Z,5.53
2019-03-30T11:38:14.803Z,5.50
2019-03-30T11:40:43.221Z,5.57
2019-03-30T11:43:11.158Z,5.77
2019-03-30T11:45:39.357Z,4.83
2019-03-30T11:48:08.218Z,4.80
2019-03-30T11:50:36.762Z,5.57
2019-03-30T11:53:05.038Z,4.90
2019-03-30T11:55:34.121Z,4.77
2019-03-30T11:58:02.588Z,5.10
2019-03-30T12:00:30.818Z,4.90
2019-03-30T12:02:58.798Z,4.70
2019-03-30T12:05:27.507Z,5.53
2019-03-30T12:07:55.443Z,5.60
2019-03-30T12:10:23.905Z,5.43
2019-03-30T12:12:52.162Z,6.10
2019-03-30T12:15:20.122Z,5.57
2019-03-30T12:17:48.450Z,5.10
2019-03-30T12:20:16.658Z,5.13
2019-03-30T12:22:44.822Z,5.30
2019-03-30T12:25:13.125Z,5.53
2019-03-30T12:27:41.036Z,6.43
2019-03-30T12:30:09.335Z,5.70
2019-03-30T12:32:37.793Z,5.60
2019-03-30T12:35:05.871Z,5.90
2019-03-30T12:37:34.126Z,7.13
2019-03-30T12:40:02.313Z,5.90
2019-03-30T12:42:30.266Z,6.03
2019-03-30T12:44:58.502Z,5.33
2019-03-30T12:47:26.953Z,6.20
2019-03-30T12:49:55.279Z,6.60
2019-03-30T12:52:26.496Z,5.77
2019-03-30T12:54:53.927Z,6.10
2019-03-30T12:57:22.565Z,6.00
2019-03-30T12:59:50.742Z,6.53
2019-03-30T13:02:18.992Z,6.17
2019-03-30T13:04:47.465Z,5.77
2019-03-30T13:07:16.076Z,5.80
2019-03-30T13:09:44.268Z,6.33
2019-03-30T13:12:12.514Z,6.77
2019-03-30T13:14:41.291Z,6.17
2019-03-30T13:17:09.804Z,5.40
2019-03-30T13:19:38.042Z,6.83
2019-03-30T13:22:06.541Z,6.00
2019-03-30T13:24:34.742Z,6.07
2019-03-30T13:27:03.211Z,6.00
2019-03-30T13:29:31.672Z,6.40
2019-03-30T13:32:00.626Z,6.00
2019-03-30T13:34:28.665Z,6.07
2019-03-30T13:36:56.931Z,6.60
2019-03-30T13:39:25.130Z,5.97
2019-03-30T13:41:53.055Z,5.40
2019-03-30T13:44:20.988Z,5.33
2019-03-30T13:46:49.177Z,5.07
2019-03-30T13:49:17.638Z,5.90
2019-03-30T13:51:46.214Z,5.93
2019-03-30T13:54:14.146Z,5.47
2019-03-30T13:56:42.101Z,5.80
2019-03-30T13:59:10.294Z,5.90
2019-03-30T14:01:38.506Z,5.77
2019-03-30T14:04:07.126Z,5.63
2019-03-30T14:06:35.464Z,6.70
2019-03-30T14:09:04.817Z,5.30
2019-03-30T14:11:33.334Z,5.80
2019-03-30T14:14:01.522Z,5.13
2019-03-30T14:16:29.980Z,5.53
2019-03-30T14:18:58.518Z,5.73
2019-03-30T14:21:27.326Z,5.87
2019-03-30T14:23:56.122Z,6.80
2019-03-30T14:26:31.174Z,7.20
2019-03-30T14:28:55.125Z,7.23
2019-03-30T14:31:23.317Z,6.50
2019-03-30T14:33:51.240Z,6.57
2019-03-30T14:36:19.986Z,6.00
2019-03-30T14:38:47.913Z,6.13
2019-03-30T14:41:16.129Z,5.30
2019-03-30T14:43:44.085Z,5.83
2019-03-30T14:46:12.284Z,5.90
2019-03-30T14:48:41.021Z,4.90
2019-03-30T14:51:09.442Z,5.03
2019-03-30T14:53:37.627Z,6.20
2019-03-30T14:56:05.815Z,4.87
2019-03-30T14:58:34.323Z,5.07
2019-03-30T15:01:03.353Z,5.10
2019-03-30T15:03:32.121Z,5.60
2019-03-30T15:06:00.474Z,5.83
2019-03-30T15:08:28.692Z,5.93
2019-03-30T15:10:57.110Z,5.77
2019-03-30T15:13:25.606Z,5.97
2019-03-30T15:15:54.252Z,4.73
2019-03-30T15:18:22.180Z,5.00
2019-03-30T15:20:50.878Z,5.13
2019-03-30T15:23:19.758Z,5.00
2019-03-30T15:25:48.004Z,5.40
2019-03-30T15:28:16.023Z,5.03
2019-03-30T15:30:44.260Z,5.00
2019-03-30T15:33:12.665Z,5.40
2019-03-30T15:35:40.619Z,5.70
2019-03-30T15:38:08.549Z,6.00
2019-03-30T15:40:37.162Z,6.57
2019-03-30T15:43:05.344Z,6.40
2019-03-30T15:45:34.012Z,7.40
2019-03-30T15:48:02.632Z,7.03
2019-03-30T15:50:30.974Z,8.03
2019-03-30T15:52:59.281Z,8.30
2019-03-30T15:55:27.521Z,8.37
2019-03-30T15:57:55.870Z,7.90
2019-03-30T16:00:24.166Z,8.03
2019-03-30T16:02:52.365Z,8.03
2019-03-30T16:05:20.672Z,8.97
2019-03-30T16:07:48.590Z,8.37
2019-03-30T16:10:17.142Z,7.47
2019-03-30T16:12:45.204Z,8.33
2019-03-30T16:15:13.827Z,7.93
2019-03-30T16:17:42.057Z,8.80
2019-03-30T16:20:09.997Z,7.40
2019-03-30T16:22:38.593Z,7.53
2019-03-30T16:25:06.907Z,7.90
2019-03-30T16:27:38.849Z,7.40
2019-03-30T16:30:05.459Z,7.57
2019-03-30T16:32:33.813Z,8.30
2019-03-30T16:35:02.079Z,7.30
2019-03-30T16:37:30.670Z,6.97
2019-03-30T16:39:58.929Z,7.37
2019-03-30T16:42:27.397Z,7.80
2019-03-30T16:44:56.144Z,7.00
2019-03-30T16:47:24.637Z,7.50
2019-03-30T16:49:53.202Z,7.00
2019-03-30T16:52:21.785Z,6.73
2019-03-30T16:54:50.272Z,6.33
2019-03-30T16:57:18.518Z,6.60
2019-03-30T16:59:46.981Z,7.00
2019-03-30T17:02:15.579Z,7.17
2019-03-30T17:04:43.884Z,7.10
2019-03-30T17:07:12.161Z,8.40
2019-03-30T17:09:40.083Z,7.33
2019-03-30T17:12:08.029Z,6.73
2019-03-30T17:14:35.971Z,8.17
2019-03-30T17:17:03.970Z,8.37
2019-03-30T17:19:31.920Z,8.60
2019-03-30T17:22:00.196Z,8.23
2019-03-30T17:24:28.194Z,8.40
2019-03-30T17:26:56.119Z,7.40
2019-03-30T17:29:24.046Z,7.33
2019-03-30T17:31:51.954Z,7.80
2019-03-30T17:34:19.978Z,8.50
2019-03-30T17:36:48.216Z,7.47
2019-03-30T17:39:20.262Z,7.60
2019-03-30T17:41:49.217Z,8.10
2019-03-30T17:44:17.624Z,7.00
2019-03-30T17:46:45.816Z,7.30
2019-03-30T17:49:14.403Z,7.20
2019-03-30T17:51:42.736Z,7.30
2019-03-30T17:54:10.734Z,8.00
2019-03-30T17:56:39.334Z,6.80
2019-03-30T17:59:07.348Z,7.33
2019-03-30T18:01:35.754Z,7.40
2019-03-30T18:04:03.953Z,7.40
2019-03-30T18:06:32.269Z,7.83
2019-03-30T18:09:00.645Z,7.60
2019-03-30T18:11:28.712Z,7.80
2019-03-30T18:13:57.022Z,7.23
2019-03-30T18:16:25.349Z,7.83
2019-03-30T18:18:54.251Z,8.13
2019-03-30T18:21:22.702Z,7.23
2019-03-30T18:23:50.714Z,7.00
2019-03-30T18:26:18.884Z,8.17
2019-03-30T18:28:47.140Z,6.70
2019-03-30T18:31:15.473Z,6.13
2019-03-30T18:33:44.398Z,5.63
2019-03-30T18:36:14.499Z,4.83
2019-03-30T18:38:42.888Z,4.70
2019-03-30T18:41:11.313Z,4.67
2019-03-30T18:43:39.553Z,4.63
2019-03-30T18:46:07.859Z,5.17
2019-03-30T18:48:36.125Z,5.00
2019-03-30T18:51:04.047Z,5.70
2019-03-30T18:53:32.166Z,5.40
2019-03-30T18:56:00.345Z,4.80
2019-03-30T18:58:41.009Z,5.27
2019-03-30T19:00:58.492Z,5.10
2019-03-30T19:03:27.010Z,5.63
2019-03-30T19:05:55.270Z,7.13
2019-03-30T19:08:23.572Z,7.10
2019-03-30T19:10:51.958Z,6.77
2019-03-30T19:13:20.115Z,6.10
2019-03-30T19:15:48.313Z,6.03
2019-03-30T19:18:16.762Z,6.30
2019-03-30T19:20:44.686Z,8.20
2019-03-30T19:23:13.517Z,7.67
2019-03-30T19:25:41.454Z,6.60
2019-03-30T19:28:10.078Z,6.17
2019-03-30T19:30:41.982Z,5.70
2019-03-30T19:33:08.823Z,5.43
2019-03-30T19:35:36.766Z,5.33
2019-03-30T19:38:04.674Z,5.57
2019-03-30T19:40:32.593Z,6.20
2019-03-30T19:43:01.241Z,5.80
2019-03-30T19:45:31.532Z,6.47
2019-03-30T19:48:00.173Z,5.70
2019-03-30T19:50:28.471Z,6.50
2019-03-30T19:52:58.058Z,6.10
2019-03-30T19:55:26.336Z,6.23
2019-03-30T19:57:54.683Z,6.17
2019-03-30T20:00:22.793Z,6.60
2019-03-30T20:02:51.309Z,6.70
2019-03-30T20:05:19.581Z,7.10
2019-03-30T20:07:48.129Z,6.63
2019-03-30T20:10:16.129Z,6.10
2019-03-30T20:12:44.722Z,6.23
2019-03-30T20:15:13.360Z,6.30
2019-03-30T20:17:42.148Z,6.50
2019-03-30T20:20:10.423Z,6.40
2019-03-30T20:22:38.447Z,6.67
2019-03-30T20:25:07.395Z,7.10
2019-03-30T20:27:35.337Z,7.80
2019-03-30T20:30:04.045Z,7.20
2019-03-30T20:32:32.300Z,7.20
2019-03-30T20:35:00.897Z,7.80
2019-03-30T20:37:29.074Z,7.20
2019-03-30T20:39:57.022Z,7.90
2019-03-30T20:42:25.168Z,8.53
2019-03-30T20:44:53.373Z,7.57
2019-03-30T20:47:21.796Z,8.10
2019-03-30T20:49:49.714Z,8.53
2019-03-30T20:52:18.335Z,8.17
2019-03-30T20:54:46.474Z,8.07
2019-03-30T20:57:14.425Z,8.10
2019-03-30T20:59:42.899Z,7.90
2019-03-30T21:02:11.553Z,8.17
2019-03-30T21:04:39.812Z,7.90
2019-03-30T21:07:07.841Z,8.70
2019-03-30T21:09:35.905Z,8.30
2019-03-30T21:12:04.190Z,8.03
2019-03-30T21:14:33.013Z,8.83
2019-03-30T21:17:01.681Z,8.80
2019-03-30T21:19:30.028Z,9.50
2019-03-30T21:21:58.992Z,9.13
2019-03-30T21:24:27.369Z,9.23
2019-03-30T21:26:55.631Z,8.90
2019-03-30T21:29:23.951Z,9.63
2019-03-30T21:31:52.236Z,9.40
2019-03-30T21:34:21.070Z,9.93
2019-03-30T21:36:49.361Z,9.77
2019-03-30T21:39:17.630Z,9.00
2019-03-30T21:41:46.205Z,10.70
2019-03-30T21:44:21.824Z,9.33
2019-03-30T21:46:44.698Z,9.17
2019-03-30T21:49:13.138Z,9.50
2019-03-30T21:51:41.621Z,10.00
2019-03-30T21:54:09.865Z,10.20
2019-03-30T21:56:38.140Z,9.03
2019-03-30T21:59:06.487Z,8.93
2019-03-30T22:01:34.426Z,8.90
2019-03-30T22:04:02.653Z,9.10
2019-03-30T22:06:30.837Z,8.80
2019-03-30T22:08:59.670Z,9.37
2019-03-30T22:11:27.893Z,9.03
2019-03-30T22:13:56.776Z,9.00
2019-03-30T22:16:25.329Z,8.90
2019-03-30T22:18:53.795Z,9.33
2019-03-30T22:21:22.305Z,9.03
2019-03-30T22:23:50.545Z,9.03
2019-03-30T22:26:18.774Z,8.67
2019-03-30T22:28:47.036Z,8.47
2019-03-30T22:31:15.417Z,8.23
2019-03-30T22:33:43.966Z,8.97
2019-03-30T22:36:12.254Z,9.27
2019-03-30T22:38:40.886Z,8.77
2019-03-30T22:41:09.450Z,9.07
2019-03-30T22:43:38.142Z,9.00
2019-03-30T22:46:07.709Z,9.13
2019-03-30T22:48:36.542Z,8.33
2019-03-30T22:51:04.468Z,9.10
2019-03-30T22:53:32.852Z,8.87
2019-03-30T22:56:01.104Z,8.87
2019-03-30T22:58:29.029Z,8.60
2019-03-30T23:01:02.003Z,8.80
2019-03-30T23:03:30.253Z,8.40
2019-03-30T23:05:58.897Z,9.07
2019-03-30T23:08:26.909Z,9.27
2019-03-30T23:10:55.582Z,9.50
2019-03-30T23:13:23.805Z,10.33
2019-03-30T23:15:51.993Z,9.80
2019-03-30T23:18:20.158Z,10.73
2019-03-30T23:20:48.393Z,9.93
2019-03-30T23:23:16.614Z,10.20
2019-03-30T23:25:45.256Z,10.60
2019-03-30T23:28:13.622Z,10.50
2019-03-30T23:30:53.475Z,9.20
2019-03-30T23:33:11.752Z,9.93
2019-03-30T23:35:39.938Z,10.07
2019-03-30T23:38:07.947Z,9.50
2019-03-30T23:40:36.175Z,10.60
2019-03-30T23:43:04.119Z,10.50
2019-03-30T23:45:32.313Z,10.60
2019-03-30T23:48:00.630Z,10.30
2019-03-30T23:50:29.612Z,9.90
2019-03-30T23:52:57.550Z,10.10
2019-03-30T23:55:25.795Z,10.43
2019-03-30T23:57:54.314Z,10.40
